Detroit, Michigan
Current Conditions -  °F | °C
As of 12:00 PM on Friday 19 Dec 2014 (Local Time) from CYQG Reporting Station
Broken Clouds Broken Clouds  
Wind Chill: -6°   Ceiling: 2300
Heat Index: -2°   Visibility: 15mi
Dew Point: -7°   Wind: 8mph
Humidity: 69%   Direction: 350°N
Pressure: 30.27"   Gusts: NA
Location:  42.33°N, 83.05°W
Report Text: CYQG 191700Z 35007KT 290V360 15SM BKN023 M02/M07 A3027 RMK SC7 SLP258
Loading
Personal Weather Stations






























Interactive Weather Map New forecast layout! Learn more

10-Day Weather Forecast

Advertisements
Track Severe Weather on mobile